Bookmark and Share
Track history (hours):
 

Christy T

More information available from US FCC via Universal Licensing System and Coast Guard Vessel Documentation Center.

Last reported at 2014-Apr-18 12:33 UTC. Time now 2014-Apr-18 13:22 UTC.
Position N 30°03' W 090°36'.

Length 30 m.

Type: Towing. MMSI: 367389450.

NotesDate/timePositionNaut miles runAvg speedWind from/ knotsBaromVisibWave heightAir tempDewpointWater temp
2014-Apr-18 12:33N 30°03' W 090°36'0 0.0
2014-Apr-18 11:33N 30°03' W 090°36'0 0.1
2014-Apr-18 10:33N 30°03' W 090°36'0 0.0
2014-Apr-18 09:33N 30°03' W 090°36'0 0.0
2014-Apr-18 08:33N 30°03' W 090°36'0 0.0
2014-Apr-18 07:33N 30°03' W 090°36'1 0.5
2014-Apr-18 06:33N 30°03' W 090°36'6 5.7
2014-Apr-18 05:33N 30°01' W 090°43'  
2014-Apr-13 07:32N 29°59' W 090°49'4 4.2
2014-Apr-13 06:33N 30°01' W 090°45'4 4.1
2014-Apr-13 05:34N 30°03' W 090°40'4 3.8
2014-Apr-13 04:33N 30°03' W 090°36'0 0.2
2014-Apr-13 03:33N 30°03' W 090°36'0 0.0
2014-Apr-13 02:33N 30°03' W 090°36'3 3.1
2014-Apr-13 01:33N 30°03' W 090°32'5 5.1
2014-Apr-13 00:33N 29°60' W 090°27'0 0.1
2014-Apr-12 23:33N 29°60' W 090°27'8 8.2
2014-Apr-12 22:33N 30°03' W 090°36'9 8.4
2014-Apr-12 21:31N 30°01' W 090°46'  
2014-Apr-10 12:13N 30°08' W 090°57'4 3.5
2014-Apr-10 11:09N 30°04' W 090°54'3 4.4
2014-Apr-10 10:33N 30°04' W 090°51'5 4.6
2014-Apr-10 09:32N 29°59' W 090°50'2 1.7
2014-Apr-10 08:30N 29°60' W 090°48'3 3.3
2014-Apr-10 07:33N 30°01' W 090°44'4 4.5
2014-Apr-10 06:33N 30°03' W 090°40'4 4.0
2014-Apr-10 05:33N 30°03' W 090°35'5 4.7
2014-Apr-10 04:33N 30°03' W 090°30'4 4.0
2014-Apr-10 03:33N 29°60' W 090°27'3 3.0
2014-Apr-10 02:33N 29°59' W 090°24'0 0.1
2014-Apr-10 01:33N 29°59' W 090°24'3 2.6
2014-Apr-10 00:33N 29°60' W 090°27'8 7.7
2014-Apr-09 23:33N 30°03' W 090°35'1 1.2
2014-Apr-09 22:33N 30°03' W 090°36'  

Dump ship's entire track history

sailing weather and tide predictions

Christy T — WDE7137 — position and weather